Impacts TAF Board
For situational awareness. Not to be used for flight planning purposes.
IDs:

KEAT - Wenatchee/Pangborn M, WA, US

Issued at 2322 UTC 05 Dec 2019
Updated at 0118 UTC 06 Dec 2019
Potential Impact None Slight Moderate High
Time0055Z 06/02Z 06/03Z 06/04Z 06/05Z 06/06Z 06/07Z 06/08Z 06/09Z 06/10Z 06/11Z 06/12Z 06/13Z 06/14Z>>
Type OBS PRVL PRVL PRVL PRVL PRVL PRVL PRVL PRVL PRVL PRVL PRVL PRVL PRVL
VIS 10 >6 >6 >6 >6 >6 >6 >6 >6 >6 >6 >6 >6 4
CIG -- 50 50 50 50 50 50 50 25 25 25 25 25 3
Cover CLR OVC OVC OVC OVC OVC OVC OVC OVC OVC OVC OVC OVC OVC
FltCat VFR VFR VFR VFR VFR VFR VFR VFR MVFR MVFR MVFR MVFR MVFR LIFR
WX -- -- -- -- -- -- -- -- -- -- -- -- -- BR
WDir VRB VRB VRB VRB VRB VRB VRB VRB VRB VRB VRB VRB VRB VRB
WSpd 0 2 2 2 2 2 2 2 2 2 2 2 2 2
WGst -- -- -- -- -- -- -- -- -- -- -- -- -- --
Raw TAF
KEAT 052322Z 0600/0624 VRB02KT P6SM OVC050
  FM060900 VRB02KT P6SM OVC025
  FM061400 VRB02KT 4SM BR OVC003
  FM061900 VRB02KT 6SM BR OVC015


Raw METAR
KEAT 060055Z AUTO 00000KT 10SM CLR 03/00 A3012 RMK AO2 SLP208 T00330000
KEAT 052355Z AUTO 00000KT 10SM FEW065 04/01 A3011 RMK AO2 SLP206 T00440006 10056 20017 50003
KEAT 052255Z AUTO 00000KT 10SM FEW036 06/01 A3011 RMK AO2 SLP206 T00560011

METAR Board
Radar Display
Forecast Discussion
For situational awareness. Not to be used for flight planning purposes.